Aviation Digital Data Service (ADDS)

Output produced by METARs form (2037 UTC 18 April 2021)
found at http://www.aviationweather.gov/metar/data/
 
Forecast for: LFRS (NANTES/CHATEAU B, FR)
Text: TAF LFRS 181700Z 1818/1924 02006KT CAVOK
Forecast period: 1800 UTC 18 April 2021 to 0000 UTC 20 April 2021
Forecast type: FROM: standard forecast or significant change
Winds: from the NNE (20 degrees) at 7 MPH (6 knots; 3.1 m/s)
Visibility: 6 or more miles (10+ km)
Ceiling: unknown
Clouds: missing
Weather: NSW  (no significant weather)